Guapore, Brazil
Current Conditions -  °F | °C
As of 7:00 AM on Wednesday 22 Oct 2014 (Local Time) from SBPF Reporting Station
Clear Clear  
Wind Chill: 57°   Ceiling: Unl
Heat Index: 57°   Visibility: 6mi
Dew Point: 55°   Wind: 12mph
Humidity: 94%   Direction: 60°ENE
Pressure: 30.15"   Gusts: NA
Location:  28.85°S, 51.89°W
Report Text: SBPF 220900Z 06010KT CAVOK 14/13 Q1021
Loading
Personal Weather Stations






























Interactive Weather Map
Tropical Storm Tracking
New forecast layout! Learn more

10-Day Weather Forecast

Advertisements
Track Severe Weather on mobile